sensor_id;sensor_type;location;lat;lon;timestamp;temperature;humidity
67157;SHT31;54086;50.126;8.710;2023-07-13T00:01:13;22.38;55.52
67157;SHT31;54086;50.126;8.710;2023-07-13T00:03:38;22.36;55.68
67157;SHT31;54086;50.126;8.710;2023-07-13T00:06:06;22.28;55.85
67157;SHT31;54086;50.126;8.710;2023-07-13T00:08:32;22.31;55.84
67157;SHT31;54086;50.126;8.710;2023-07-13T00:11:01;22.24;55.91
67157;SHT31;54086;50.126;8.710;2023-07-13T00:13:28;22.28;55.90
67157;SHT31;54086;50.126;8.710;2023-07-13T00:15:54;22.28;55.92
67157;SHT31;54086;50.126;8.710;2023-07-13T00:18:20;22.33;56.03
67157;SHT31;54086;50.126;8.710;2023-07-13T00:20:45;22.38;55.99
67157;SHT31;54086;50.126;8.710;2023-07-13T00:23:11;22.37;55.98
67157;SHT31;54086;50.126;8.710;2023-07-13T00:25:37;22.34;56.11
67157;SHT31;54086;50.126;8.710;2023-07-13T00:28:03;22.27;56.27
67157;SHT31;54086;50.126;8.710;2023-07-13T00:30:28;22.24;56.24
67157;SHT31;54086;50.126;8.710;2023-07-13T00:32:54;22.22;56.42
67157;SHT31;54086;50.126;8.710;2023-07-13T00:35:19;22.17;56.41
67157;SHT31;54086;50.126;8.710;2023-07-13T00:37:45;22.13;56.50
67157;SHT31;54086;50.126;8.710;2023-07-13T00:40:15;22.16;56.64
67157;SHT31;54086;50.126;8.710;2023-07-13T00:42:40;22.07;56.82
67157;SHT31;54086;50.126;8.710;2023-07-13T00:47:41;21.86;57.46
67157;SHT31;54086;50.126;8.710;2023-07-13T00:50:10;21.77;57.66
67157;SHT31;54086;50.126;8.710;2023-07-13T00:52:41;21.79;57.85
67157;SHT31;54086;50.126;8.710;2023-07-13T00:55:07;21.69;58.02
67157;SHT31;54086;50.126;8.710;2023-07-13T00:57:34;21.66;58.08
67157;SHT31;54086;50.126;8.710;2023-07-13T01:00:02;21.67;57.85
67157;SHT31;54086;50.126;8.710;2023-07-13T01:02:30;21.69;57.90
67157;SHT31;54086;50.126;8.710;2023-07-13T01:04:58;21.66;57.96
67157;SHT31;54086;50.126;8.710;2023-07-13T01:07:24;21.63;57.89
67157;SHT31;54086;50.126;8.710;2023-07-13T01:09:50;21.60;58.16
67157;SHT31;54086;50.126;8.710;2023-07-13T01:12:15;21.60;58.17
67157;SHT31;54086;50.126;8.710;2023-07-13T01:14:41;21.60;58.26
67157;SHT31;54086;50.126;8.710;2023-07-13T01:17:10;21.55;58.36
67157;SHT31;54086;50.126;8.710;2023-07-13T01:19:40;21.49;58.42
67157;SHT31;54086;50.126;8.710;2023-07-13T01:22:09;21.45;58.69
67157;SHT31;54086;50.126;8.710;2023-07-13T01:24:37;21.42;58.62
67157;SHT31;54086;50.126;8.710;2023-07-13T01:27:10;21.46;58.91
67157;SHT31;54086;50.126;8.710;2023-07-13T01:29:37;21.50;58.65
67157;SHT31;54086;50.126;8.710;2023-07-13T01:32:08;21.45;58.77
67157;SHT31;54086;50.126;8.710;2023-07-13T01:34:34;21.39;58.85
67157;SHT31;54086;50.126;8.710;2023-07-13T01:37:00;21.31;59.11
67157;SHT31;54086;50.126;8.710;2023-07-13T01:39:25;21.15;59.19
67157;SHT31;54086;50.126;8.710;2023-07-13T01:41:51;21.17;59.12
67157;SHT31;54086;50.126;8.710;2023-07-13T01:44:16;21.04;59.27
67157;SHT31;54086;50.126;8.710;2023-07-13T01:46:44;21.00;59.46
67157;SHT31;54086;50.126;8.710;2023-07-13T01:49:11;20.95;59.22
67157;SHT31;54086;50.126;8.710;2023-07-13T01:51:36;20.94;59.58
67157;SHT31;54086;50.126;8.710;2023-07-13T01:54:02;20.84;59.53
67157;SHT31;54086;50.126;8.710;2023-07-13T01:56:28;20.78;59.49
67157;SHT31;54086;50.126;8.710;2023-07-13T01:58:53;20.74;59.17
67157;SHT31;54086;50.126;8.710;2023-07-13T02:01:19;20.66;59.49
67157;SHT31;54086;50.126;8.710;2023-07-13T02:03:44;20.70;59.50
67157;SHT31;54086;50.126;8.710;2023-07-13T02:06:09;20.74;59.51
67157;SHT31;54086;50.126;8.710;2023-07-13T02:08:35;20.64;59.70
67157;SHT31;54086;50.126;8.710;2023-07-13T02:11:02;20.67;59.73
67157;SHT31;54086;50.126;8.710;2023-07-13T02:13:28;20.71;59.75
67157;SHT31;54086;50.126;8.710;2023-07-13T02:15:53;20.74;59.76
67157;SHT31;54086;50.126;8.710;2023-07-13T02:18:19;20.76;59.78
67157;SHT31;54086;50.126;8.710;2023-07-13T02:20:45;20.73;59.91
67157;SHT31;54086;50.126;8.710;2023-07-13T02:23:11;20.69;60.05
67157;SHT31;54086;50.126;8.710;2023-07-13T02:25:36;20.70;60.16
67157;SHT31;54086;50.126;8.710;2023-07-13T02:28:02;20.70;60.17
67157;SHT31;54086;50.126;8.710;2023-07-13T02:30:28;20.76;60.10
67157;SHT31;54086;50.126;8.710;2023-07-13T02:32:56;20.73;60.08
67157;SHT31;54086;50.126;8.710;2023-07-13T02:35:21;20.69;60.21
67157;SHT31;54086;50.126;8.710;2023-07-13T02:37:46;20.51;60.32
67157;SHT31;54086;50.126;8.710;2023-07-13T02:40:12;20.53;60.41
67157;SHT31;54086;50.126;8.710;2023-07-13T02:42:38;20.46;60.47
67157;SHT31;54086;50.126;8.710;2023-07-13T02:45:03;20.53;60.02
67157;SHT31;54086;50.126;8.710;2023-07-13T02:47:31;20.50;60.25
67157;SHT31;54086;50.126;8.710;2023-07-13T02:49:56;20.54;59.23
67157;SHT31;54086;50.126;8.710;2023-07-13T02:52:22;20.46;58.28
67157;SHT31;54086;50.126;8.710;2023-07-13T02:54:47;20.46;57.29
67157;SHT31;54086;50.126;8.710;2023-07-13T02:57:13;20.50;56.99
67157;SHT31;54086;50.126;8.710;2023-07-13T02:59:38;20.37;56.80
67157;SHT31;54086;50.126;8.710;2023-07-13T03:02:04;20.44;56.70
67157;SHT31;54086;50.126;8.710;2023-07-13T03:04:29;20.46;56.88
67157;SHT31;54086;50.126;8.710;2023-07-13T03:06:55;20.43;56.87
67157;SHT31;54086;50.126;8.710;2023-07-13T03:09:24;20.34;56.61
67157;SHT31;54086;50.126;8.710;2023-07-13T03:11:51;20.46;56.62
67157;SHT31;54086;50.126;8.710;2023-07-13T03:14:17;20.37;56.62
67157;SHT31;54086;50.126;8.710;2023-07-13T03:16:42;20.44;56.69
67157;SHT31;54086;50.126;8.710;2023-07-13T03:19:08;20.43;56.74
67157;SHT31;54086;50.126;8.710;2023-07-13T03:21:33;20.26;57.33
67157;SHT31;54086;50.126;8.710;2023-07-13T03:23:58;20.22;57.58
67157;SHT31;54086;50.126;8.710;2023-07-13T03:26:24;19.75;60.09
67157;SHT31;54086;50.126;8.710;2023-07-13T03:28:49;19.68;60.37
67157;SHT31;54086;50.126;8.710;2023-07-13T03:31:23;19.83;59.07
67157;SHT31;54086;50.126;8.710;2023-07-13T03:33:48;19.79;59.79
67157;SHT31;54086;50.126;8.710;2023-07-13T03:36:19;19.98;59.75
67157;SHT31;54086;50.126;8.710;2023-07-13T03:38:50;20.15;58.38
67157;SHT31;54086;50.126;8.710;2023-07-13T03:41:17;20.32;57.83
67157;SHT31;54086;50.126;8.710;2023-07-13T03:43:43;20.19;57.92
67157;SHT31;54086;50.126;8.710;2023-07-13T03:46:09;20.19;57.62
67157;SHT31;54086;50.126;8.710;2023-07-13T03:48:35;20.26;57.85
67157;SHT31;54086;50.126;8.710;2023-07-13T03:51:00;20.25;57.88
67157;SHT31;54086;50.126;8.710;2023-07-13T03:53:26;20.25;58.05
67157;SHT31;54086;50.126;8.710;2023-07-13T03:55:52;20.30;57.98
67157;SHT31;54086;50.126;8.710;2023-07-13T03:58:30;20.29;58.02
67157;SHT31;54086;50.126;8.710;2023-07-13T04:00:57;20.32;58.02
67157;SHT31;54086;50.126;8.710;2023-07-13T04:03:23;20.08;58.81
67157;SHT31;54086;50.126;8.710;2023-07-13T04:05:49;20.19;58.95
67157;SHT31;54086;50.126;8.710;2023-07-13T04:08:14;20.08;59.05
67157;SHT31;54086;50.126;8.710;2023-07-13T04:10:40;20.13;59.19
67157;SHT31;54086;50.126;8.710;2023-07-13T04:13:06;20.22;59.19
67157;SHT31;54086;50.126;8.710;2023-07-13T04:15:32;20.19;59.22
67157;SHT31;54086;50.126;8.710;2023-07-13T04:17:58;19.92;59.48
67157;SHT31;54086;50.126;8.710;2023-07-13T04:20:25;19.95;59.77
67157;SHT31;54086;50.126;8.710;2023-07-13T04:22:51;19.82;59.92
67157;SHT31;54086;50.126;8.710;2023-07-13T04:25:16;19.81;60.14
67157;SHT31;54086;50.126;8.710;2023-07-13T04:27:42;19.96;60.17
67157;SHT31;54086;50.126;8.710;2023-07-13T04:30:08;20.04;59.98
67157;SHT31;54086;50.126;8.710;2023-07-13T04:32:33;20.01;59.75
67157;SHT31;54086;50.126;8.710;2023-07-13T04:34:59;19.92;59.89
67157;SHT31;54086;50.126;8.710;2023-07-13T04:37:25;19.86;60.04
67157;SHT31;54086;50.126;8.710;2023-07-13T04:39:51;19.83;60.17
67157;SHT31;54086;50.126;8.710;2023-07-13T04:42:17;19.82;60.18
67157;SHT31;54086;50.126;8.710;2023-07-13T04:44:48;19.99;60.22
67157;SHT31;54086;50.126;8.710;2023-07-13T04:47:14;20.02;59.73
67157;SHT31;54086;50.126;8.710;2023-07-13T04:49:39;20.09;59.65
67157;SHT31;54086;50.126;8.710;2023-07-13T04:52:05;19.92;59.16
67157;SHT31;54086;50.126;8.710;2023-07-13T04:54:32;20.06;59.27
67157;SHT31;54086;50.126;8.710;2023-07-13T04:56:58;20.01;59.18
67157;SHT31;54086;50.126;8.710;2023-07-13T04:59:23;20.09;58.99
67157;SHT31;54086;50.126;8.710;2023-07-13T05:01:49;19.82;59.25
67157;SHT31;54086;50.126;8.710;2023-07-13T05:04:14;19.93;58.67
67157;SHT31;54086;50.126;8.710;2023-07-13T05:06:40;19.78;59.26
67157;SHT31;54086;50.126;8.710;2023-07-13T05:09:05;19.88;58.73
67157;SHT31;54086;50.126;8.710;2023-07-13T05:11:32;20.10;58.47
67157;SHT31;54086;50.126;8.710;2023-07-13T05:13:57;20.20;57.99
67157;SHT31;54086;50.126;8.710;2023-07-13T05:16:23;20.25;57.88
67157;SHT31;54086;50.126;8.710;2023-07-13T05:18:48;20.51;57.47
67157;SHT31;54086;50.126;8.710;2023-07-13T05:21:14;20.41;57.48
67157;SHT31;54086;50.126;8.710;2023-07-13T05:23:40;20.29;57.48
67157;SHT31;54086;50.126;8.710;2023-07-13T05:26:07;20.22;57.57
67157;SHT31;54086;50.126;8.710;2023-07-13T05:28:32;20.36;57.20
67157;SHT31;54086;50.126;8.710;2023-07-13T05:30:58;20.54;57.18
67157;SHT31;54086;50.126;8.710;2023-07-13T05:33:24;20.59;56.64
67157;SHT31;54086;50.126;8.710;2023-07-13T05:35:49;20.69;56.33
67157;SHT31;54086;50.126;8.710;2023-07-13T05:38:15;20.70;56.08
67157;SHT31;54086;50.126;8.710;2023-07-13T05:40:43;20.69;56.00
67157;SHT31;54086;50.126;8.710;2023-07-13T05:43:09;20.80;56.25
67157;SHT31;54086;50.126;8.710;2023-07-13T05:45:34;20.84;55.98
67157;SHT31;54086;50.126;8.710;2023-07-13T05:48:00;20.84;56.05
67157;SHT31;54086;50.126;8.710;2023-07-13T05:50:26;21.01;55.65
67157;SHT31;54086;50.126;8.710;2023-07-13T05:52:52;20.74;56.16
67157;SHT31;54086;50.126;8.710;2023-07-13T05:55:18;20.66;56.36
67157;SHT31;54086;50.126;8.710;2023-07-13T05:57:43;20.78;56.49
67157;SHT31;54086;50.126;8.710;2023-07-13T06:00:09;20.81;55.91
67157;SHT31;54086;50.126;8.710;2023-07-13T06:02:35;20.80;55.81
67157;SHT31;54086;50.126;8.710;2023-07-13T06:05:01;20.77;56.08
67157;SHT31;54086;50.126;8.710;2023-07-13T06:07:26;20.83;55.87
67157;SHT31;54086;50.126;8.710;2023-07-13T06:09:51;21.07;55.51
67157;SHT31;54086;50.126;8.710;2023-07-13T06:12:17;21.11;55.55
67157;SHT31;54086;50.126;8.710;2023-07-13T06:14:42;21.11;55.59
67157;SHT31;54086;50.126;8.710;2023-07-13T06:17:08;21.00;56.03
67157;SHT31;54086;50.126;8.710;2023-07-13T06:19:34;21.15;56.01
67157;SHT31;54086;50.126;8.710;2023-07-13T06:21:59;21.21;56.08
67157;SHT31;54086;50.126;8.710;2023-07-13T06:24:25;20.98;55.84
67157;SHT31;54086;50.126;8.710;2023-07-13T06:26:50;21.07;56.02
67157;SHT31;54086;50.126;8.710;2023-07-13T06:29:16;21.25;56.04
67157;SHT31;54086;50.126;8.710;2023-07-13T06:31:42;21.12;55.61
67157;SHT31;54086;50.126;8.710;2023-07-13T06:34:07;21.08;56.19
67157;SHT31;54086;50.126;8.710;2023-07-13T06:36:33;21.28;56.14
67157;SHT31;54086;50.126;8.710;2023-07-13T06:38:58;21.31;55.93
67157;SHT31;54086;50.126;8.710;2023-07-13T06:41:24;21.41;56.04
67157;SHT31;54086;50.126;8.710;2023-07-13T06:43:52;21.56;55.85
67157;SHT31;54086;50.126;8.710;2023-07-13T06:46:21;21.62;55.70
67157;SHT31;54086;50.126;8.710;2023-07-13T06:48:47;21.21;55.73
67157;SHT31;54086;50.126;8.710;2023-07-13T06:51:12;21.43;56.05
67157;SHT31;54086;50.126;8.710;2023-07-13T06:53:38;21.55;55.56
67157;SHT31;54086;50.126;8.710;2023-07-13T06:56:03;21.46;55.67
67157;SHT31;54086;50.126;8.710;2023-07-13T06:58:29;21.66;55.39
67157;SHT31;54086;50.126;8.710;2023-07-13T07:00:54;21.83;55.06
67157;SHT31;54086;50.126;8.710;2023-07-13T07:03:20;21.75;55.47
67157;SHT31;54086;50.126;8.710;2023-07-13T07:05:45;21.86;54.95
67157;SHT31;54086;50.126;8.710;2023-07-13T07:08:11;21.67;55.34
67157;SHT31;54086;50.126;8.710;2023-07-13T07:10:36;21.93;55.03
67157;SHT31;54086;50.126;8.710;2023-07-13T07:13:02;22.11;54.75
67157;SHT31;54086;50.126;8.710;2023-07-13T07:15:28;21.94;55.14
67157;SHT31;54086;50.126;8.710;2023-07-13T07:17:54;21.96;55.45
67157;SHT31;54086;50.126;8.710;2023-07-13T07:20:19;22.10;54.96
67157;SHT31;54086;50.126;8.710;2023-07-13T07:22:46;22.24;54.79
67157;SHT31;54086;50.126;8.710;2023-07-13T07:25:12;22.25;54.76
67157;SHT31;54086;50.126;8.710;2023-07-13T07:27:37;22.17;54.73
67157;SHT31;54086;50.126;8.710;2023-07-13T07:30:03;22.18;54.86
67157;SHT31;54086;50.126;8.710;2023-07-13T07:32:29;22.34;54.63
67157;SHT31;54086;50.126;8.710;2023-07-13T07:34:56;22.36;54.18
67157;SHT31;54086;50.126;8.710;2023-07-13T07:37:22;22.40;54.11
67157;SHT31;54086;50.126;8.710;2023-07-13T07:39:47;22.34;53.73
67157;SHT31;54086;50.126;8.710;2023-07-13T07:42:13;22.66;53.38
67157;SHT31;54086;50.126;8.710;2023-07-13T07:44:40;22.62;52.83
67157;SHT31;54086;50.126;8.710;2023-07-13T07:47:06;22.57;52.26
67157;SHT31;54086;50.126;8.710;2023-07-13T07:49:31;22.71;52.33
67157;SHT31;54086;50.126;8.710;2023-07-13T07:51:57;22.73;51.57
67157;SHT31;54086;50.126;8.710;2023-07-13T07:54:22;22.81;51.99
67157;SHT31;54086;50.126;8.710;2023-07-13T07:56:47;22.98;51.95
67157;SHT31;54086;50.126;8.710;2023-07-13T07:59:13;22.96;51.97
67157;SHT31;54086;50.126;8.710;2023-07-13T08:01:38;23.05;51.86
67157;SHT31;54086;50.126;8.710;2023-07-13T08:04:04;23.03;51.51
67157;SHT31;54086;50.126;8.710;2023-07-13T08:06:31;23.16;50.98
67157;SHT31;54086;50.126;8.710;2023-07-13T08:08:59;23.28;50.76
67157;SHT31;54086;50.126;8.710;2023-07-13T08:11:25;23.27;49.76
67157;SHT31;54086;50.126;8.710;2023-07-13T08:13:50;23.30;49.64
67157;SHT31;54086;50.126;8.710;2023-07-13T08:16:16;23.22;49.44
67157;SHT31;54086;50.126;8.710;2023-07-13T08:18:41;23.12;49.82
67157;SHT31;54086;50.126;8.710;2023-07-13T08:21:08;23.10;50.03
67157;SHT31;54086;50.126;8.710;2023-07-13T08:23:34;23.17;50.65
67157;SHT31;54086;50.126;8.710;2023-07-13T08:26:00;23.26;50.90
67157;SHT31;54086;50.126;8.710;2023-07-13T08:28:29;23.50;50.64
67157;SHT31;54086;50.126;8.710;2023-07-13T08:30:55;23.34;50.63
67157;SHT31;54086;50.126;8.710;2023-07-13T08:33:22;23.20;50.68
67157;SHT31;54086;50.126;8.710;2023-07-13T08:35:50;23.26;50.84
67157;SHT31;54086;50.126;8.710;2023-07-13T08:38:17;23.61;49.59
67157;SHT31;54086;50.126;8.710;2023-07-13T08:40:42;23.43;49.49
67157;SHT31;54086;50.126;8.710;2023-07-13T08:43:23;23.67;48.93
67157;SHT31;54086;50.126;8.710;2023-07-13T08:45:54;23.74;49.54
67157;SHT31;54086;50.126;8.710;2023-07-13T08:48:31;24.11;48.57
67157;SHT31;54086;50.126;8.710;2023-07-13T08:53:53;24.82;47.03
67157;SHT31;54086;50.126;8.710;2023-07-13T08:56:22;24.94;46.71
67157;SHT31;54086;50.126;8.710;2023-07-13T08:58:56;25.20;45.61
67157;SHT31;54086;50.126;8.710;2023-07-13T09:01:31;25.14;45.86
67157;SHT31;54086;50.126;8.710;2023-07-13T09:04:27;24.73;46.40
67157;SHT31;54086;50.126;8.710;2023-07-13T09:09:52;25.73;44.70
67157;SHT31;54086;50.126;8.710;2023-07-13T09:14:56;25.28;44.99
67157;SHT31;54086;50.126;8.710;2023-07-13T09:17:49;25.20;45.14
67157;SHT31;54086;50.126;8.710;2023-07-13T09:20:26;25.62;44.56
67157;SHT31;54086;50.126;8.710;2023-07-13T09:22:56;25.76;44.30
67157;SHT31;54086;50.126;8.710;2023-07-13T09:25:31;25.78;44.16
67157;SHT31;54086;50.126;8.710;2023-07-13T09:28:18;25.90;44.11
67157;SHT31;54086;50.126;8.710;2023-07-13T09:30:56;26.14;43.66
67157;SHT31;54086;50.126;8.710;2023-07-13T09:33:23;26.58;43.65
67157;SHT31;54086;50.126;8.710;2023-07-13T09:35:51;26.30;43.54
67157;SHT31;54086;50.126;8.710;2023-07-13T09:38:19;25.69;44.25
67157;SHT31;54086;50.126;8.710;2023-07-13T09:43:38;26.52;43.31
67157;SHT31;54086;50.126;8.710;2023-07-13T09:46:04;26.23;43.61
67157;SHT31;54086;50.126;8.710;2023-07-13T09:48:35;26.60;42.87
67157;SHT31;54086;50.126;8.710;2023-07-13T09:51:13;27.11;42.17
67157;SHT31;54086;50.126;8.710;2023-07-13T09:53:42;26.74;42.33
67157;SHT31;54086;50.126;8.710;2023-07-13T09:56:19;26.62;42.84
67157;SHT31;54086;50.126;8.710;2023-07-13T09:58:44;26.65;42.43
67157;SHT31;54086;50.126;8.710;2023-07-13T10:01:10;26.20;43.33
67157;SHT31;54086;50.126;8.710;2023-07-13T10:03:36;26.41;42.99
67157;SHT31;54086;50.126;8.710;2023-07-13T10:06:12;26.82;42.59
67157;SHT31;54086;50.126;8.710;2023-07-13T10:08:38;27.20;42.04
67157;SHT31;54086;50.126;8.710;2023-07-13T10:13:46;27.73;40.77
67157;SHT31;54086;50.126;8.710;2023-07-13T10:16:14;27.73;40.99
67157;SHT31;54086;50.126;8.710;2023-07-13T10:21:34;27.05;41.78
67157;SHT31;54086;50.126;8.710;2023-07-13T10:29:46;27.45;41.69
67157;SHT31;54086;50.126;8.710;2023-07-13T10:32:13;27.63;41.38
67157;SHT31;54086;50.126;8.710;2023-07-13T10:34:41;26.96;42.17
67157;SHT31;54086;50.126;8.710;2023-07-13T10:37:17;26.54;42.95
67157;SHT31;54086;50.126;8.710;2023-07-13T10:39:45;26.41;43.29
67157;SHT31;54086;50.126;8.710;2023-07-13T10:42:25;26.92;42.78
67157;SHT31;54086;50.126;8.710;2023-07-13T10:44:52;27.22;42.22
67157;SHT31;54086;50.126;8.710;2023-07-13T10:47:18;27.45;41.90
67157;SHT31;54086;50.126;8.710;2023-07-13T10:49:44;27.97;41.26
67157;SHT31;54086;50.126;8.710;2023-07-13T10:52:47;27.86;41.52
67157;SHT31;54086;50.126;8.710;2023-07-13T10:55:33;28.42;40.45
67157;SHT31;54086;50.126;8.710;2023-07-13T10:58:13;28.21;40.78
67157;SHT31;54086;50.126;8.710;2023-07-13T11:00:47;27.67;41.12
67157;SHT31;54086;50.126;8.710;2023-07-13T11:03:15;27.12;41.91
67157;SHT31;54086;50.126;8.710;2023-07-13T11:05:42;26.94;40.57
67157;SHT31;54086;50.126;8.710;2023-07-13T11:08:34;28.47;39.14
67157;SHT31;54086;50.126;8.710;2023-07-13T11:11:02;28.52;39.25
67157;SHT31;54086;50.126;8.710;2023-07-13T11:16:34;27.60;40.87
67157;SHT31;54086;50.126;8.710;2023-07-13T11:21:29;27.32;41.29
67157;SHT31;54086;50.126;8.710;2023-07-13T11:24:03;27.97;40.11
67157;SHT31;54086;50.126;8.710;2023-07-13T11:26:51;27.91;38.92
67157;SHT31;54086;50.126;8.710;2023-07-13T11:31:57;28.18;39.11
67157;SHT31;54086;50.126;8.710;2023-07-13T11:34:35;28.86;38.22
67157;SHT31;54086;50.126;8.710;2023-07-13T11:37:03;29.34;37.72
67157;SHT31;54086;50.126;8.710;2023-07-13T11:39:37;28.31;39.08
67157;SHT31;54086;50.126;8.710;2023-07-13T11:42:05;27.83;40.11
67157;SHT31;54086;50.126;8.710;2023-07-13T11:44:33;27.20;40.21
67157;SHT31;54086;50.126;8.710;2023-07-13T11:47:11;27.26;40.83
67157;SHT31;54086;50.126;8.710;2023-07-13T11:49:54;28.10;38.43
67157;SHT31;54086;50.126;8.710;2023-07-13T11:52:44;28.78;37.94
67157;SHT31;54086;50.126;8.710;2023-07-13T11:55:15;27.73;38.69
67157;SHT31;54086;50.126;8.710;2023-07-13T11:57:57;27.56;39.23
67157;SHT31;54086;50.126;8.710;2023-07-13T12:00:29;26.91;40.96
67157;SHT31;54086;50.126;8.710;2023-07-13T12:02:57;26.88;41.23
67157;SHT31;54086;50.126;8.710;2023-07-13T12:05:24;27.20;40.90
67157;SHT31;54086;50.126;8.710;2023-07-13T12:07:50;26.98;41.18
67157;SHT31;54086;50.126;8.710;2023-07-13T12:10:30;26.29;41.95
67157;SHT31;54086;50.126;8.710;2023-07-13T12:13:01;26.40;41.83
67157;SHT31;54086;50.126;8.710;2023-07-13T12:18:13;27.05;41.14
67157;SHT31;54086;50.126;8.710;2023-07-13T12:20:39;28.14;39.72
67157;SHT31;54086;50.126;8.710;2023-07-13T12:23:30;27.46;39.75
67157;SHT31;54086;50.126;8.710;2023-07-13T12:25:58;27.23;40.40
67157;SHT31;54086;50.126;8.710;2023-07-13T12:30:59;26.54;41.95
67157;SHT31;54086;50.126;8.710;2023-07-13T12:33:28;26.48;41.88
67157;SHT31;54086;50.126;8.710;2023-07-13T12:35:54;26.47;42.16
67157;SHT31;54086;50.126;8.710;2023-07-13T12:38:21;26.16;42.44
67157;SHT31;54086;50.126;8.710;2023-07-13T12:40:50;25.99;42.65
67157;SHT31;54086;50.126;8.710;2023-07-13T12:43:16;26.06;42.94
67157;SHT31;54086;50.126;8.710;2023-07-13T12:45:59;27.69;40.40
67157;SHT31;54086;50.126;8.710;2023-07-13T12:48:26;27.08;41.25
67157;SHT31;54086;50.126;8.710;2023-07-13T12:50:55;26.77;41.82
67157;SHT31;54086;50.126;8.710;2023-07-13T12:53:29;26.70;41.90
67157;SHT31;54086;50.126;8.710;2023-07-13T12:55:58;26.61;41.72
67157;SHT31;54086;50.126;8.710;2023-07-13T12:58:29;26.40;42.28
67157;SHT31;54086;50.126;8.710;2023-07-13T13:00:58;26.07;42.93
67157;SHT31;54086;50.126;8.710;2023-07-13T13:03:26;26.26;42.92
67157;SHT31;54086;50.126;8.710;2023-07-13T13:05:58;26.03;42.94
67157;SHT31;54086;50.126;8.710;2023-07-13T13:08:26;25.79;43.32
67157;SHT31;54086;50.126;8.710;2023-07-13T13:10:52;25.57;43.87
67157;SHT31;54086;50.126;8.710;2023-07-13T13:13:17;25.66;43.67
67157;SHT31;54086;50.126;8.710;2023-07-13T13:15:42;25.62;43.61
67157;SHT31;54086;50.126;8.710;2023-07-13T13:18:19;25.89;43.36
67157;SHT31;54086;50.126;8.710;2023-07-13T13:20:46;26.09;43.10
67157;SHT31;54086;50.126;8.710;2023-07-13T13:23:16;26.55;42.62
67157;SHT31;54086;50.126;8.710;2023-07-13T13:25:44;26.85;42.19
67157;SHT31;54086;50.126;8.710;2023-07-13T13:28:14;26.65;41.93
67157;SHT31;54086;50.126;8.710;2023-07-13T13:30:42;26.85;42.08
67157;SHT31;54086;50.126;8.710;2023-07-13T13:33:10;26.81;41.68
67157;SHT31;54086;50.126;8.710;2023-07-13T13:35:37;26.74;41.71
67157;SHT31;54086;50.126;8.710;2023-07-13T13:38:12;27.02;41.21
67157;SHT31;54086;50.126;8.710;2023-07-13T13:40:40;26.64;41.34
67157;SHT31;54086;50.126;8.710;2023-07-13T13:43:34;26.94;41.43
67157;SHT31;54086;50.126;8.710;2023-07-13T13:46:00;26.96;40.87
67157;SHT31;54086;50.126;8.710;2023-07-13T13:48:35;26.77;41.15
67157;SHT31;54086;50.126;8.710;2023-07-13T13:51:11;26.55;41.38
67157;SHT31;54086;50.126;8.710;2023-07-13T13:53:37;26.36;41.61
67157;SHT31;54086;50.126;8.710;2023-07-13T13:56:04;26.37;42.08
67157;SHT31;54086;50.126;8.710;2023-07-13T13:58:30;26.31;42.49
67157;SHT31;54086;50.126;8.710;2023-07-13T14:00:56;26.43;42.12
67157;SHT31;54086;50.126;8.710;2023-07-13T14:03:21;26.44;42.34
67157;SHT31;54086;50.126;8.710;2023-07-13T14:05:49;26.20;42.74
67157;SHT31;54086;50.126;8.710;2023-07-13T14:08:16;26.03;42.64
67157;SHT31;54086;50.126;8.710;2023-07-13T14:10:44;26.30;42.00
67157;SHT31;54086;50.126;8.710;2023-07-13T14:13:21;26.19;42.44
67157;SHT31;54086;50.126;8.710;2023-07-13T14:15:48;26.00;42.68
67157;SHT31;54086;50.126;8.710;2023-07-13T14:18:14;26.00;42.51
67157;SHT31;54086;50.126;8.710;2023-07-13T14:20:44;26.60;41.91
67157;SHT31;54086;50.126;8.710;2023-07-13T14:23:12;27.23;41.24
67157;SHT31;54086;50.126;8.710;2023-07-13T14:25:38;26.64;42.14
67157;SHT31;54086;50.126;8.710;2023-07-13T14:28:21;26.84;42.28
67157;SHT31;54086;50.126;8.710;2023-07-13T14:30:48;26.43;42.74
67157;SHT31;54086;50.126;8.710;2023-07-13T14:33:14;26.22;43.99
67157;SHT31;54086;50.126;8.710;2023-07-13T14:35:39;26.24;44.34
67157;SHT31;54086;50.126;8.710;2023-07-13T14:38:18;26.20;44.74
67157;SHT31;54086;50.126;8.710;2023-07-13T14:40:43;25.83;45.53
67157;SHT31;54086;50.126;8.710;2023-07-13T14:43:15;25.92;45.44
67157;SHT31;54086;50.126;8.710;2023-07-13T14:45:45;25.93;45.17
67157;SHT31;54086;50.126;8.710;2023-07-13T14:48:18;26.00;45.02
67157;SHT31;54086;50.126;8.710;2023-07-13T14:50:45;26.30;44.83
67157;SHT31;54086;50.126;8.710;2023-07-13T14:53:13;26.13;44.77
67157;SHT31;54086;50.126;8.710;2023-07-13T14:55:39;26.22;44.70
67157;SHT31;54086;50.126;8.710;2023-07-13T14:58:05;26.37;44.51
67157;SHT31;54086;50.126;8.710;2023-07-13T15:00:33;26.33;44.67
67157;SHT31;54086;50.126;8.710;2023-07-13T15:02:59;26.33;44.23
67157;SHT31;54086;50.126;8.710;2023-07-13T15:05:28;26.50;43.96
67157;SHT31;54086;50.126;8.710;2023-07-13T15:07:58;26.50;43.90
67157;SHT31;54086;50.126;8.710;2023-07-13T15:10:27;26.80;43.39
67157;SHT31;54086;50.126;8.710;2023-07-13T15:12:58;26.55;43.83
67157;SHT31;54086;50.126;8.710;2023-07-13T15:15:24;26.23;44.16
67157;SHT31;54086;50.126;8.710;2023-07-13T15:17:49;26.26;44.38
67157;SHT31;54086;50.126;8.710;2023-07-13T15:20:26;26.39;44.16
67157;SHT31;54086;50.126;8.710;2023-07-13T15:22:52;26.43;43.98
67157;SHT31;54086;50.126;8.710;2023-07-13T15:25:21;26.50;43.78
67157;SHT31;54086;50.126;8.710;2023-07-13T15:27:47;26.71;43.78
67157;SHT31;54086;50.126;8.710;2023-07-13T15:30:15;26.82;43.44
67157;SHT31;54086;50.126;8.710;2023-07-13T15:32:42;26.67;43.49
67157;SHT31;54086;50.126;8.710;2023-07-13T15:35:20;26.55;43.52
67157;SHT31;54086;50.126;8.710;2023-07-13T15:37:48;26.27;44.01
67157;SHT31;54086;50.126;8.710;2023-07-13T15:40:14;25.86;44.29
67157;SHT31;54086;50.126;8.710;2023-07-13T15:42:41;26.20;43.93
67157;SHT31;54086;50.126;8.710;2023-07-13T15:45:26;26.96;42.68
67157;SHT31;54086;50.126;8.710;2023-07-13T15:47:52;26.78;43.23
67157;SHT31;54086;50.126;8.710;2023-07-13T15:50:22;26.68;42.90
67157;SHT31;54086;50.126;8.710;2023-07-13T15:52:51;26.54;42.99
67157;SHT31;54086;50.126;8.710;2023-07-13T15:55:18;26.22;43.33
67157;SHT31;54086;50.126;8.710;2023-07-13T15:57:49;26.92;42.54
67157;SHT31;54086;50.126;8.710;2023-07-13T16:00:25;27.51;41.81
67157;SHT31;54086;50.126;8.710;2023-07-13T16:02:52;27.74;41.26
67157;SHT31;54086;50.126;8.710;2023-07-13T16:05:19;27.46;41.82
67157;SHT31;54086;50.126;8.710;2023-07-13T16:07:48;27.51;42.00
67157;SHT31;54086;50.126;8.710;2023-07-13T16:10:16;26.81;42.42
67157;SHT31;54086;50.126;8.710;2023-07-13T16:12:42;26.16;43.12
67157;SHT31;54086;50.126;8.710;2023-07-13T16:15:17;26.33;42.94